createdAt,value
2022-10-04T00:02:00.571Z,4.10
2022-10-04T00:04:33.905Z,3.63
2022-10-04T00:07:14.609Z,3.90
2022-10-04T00:10:03.424Z,4.00
2022-10-04T00:12:39.572Z,4.28
2022-10-04T00:15:32.373Z,3.83
2022-10-04T00:18:11.468Z,3.85
2022-10-04T00:20:50.905Z,3.72
2022-10-04T00:23:23.838Z,4.22
2022-10-04T00:26:02.533Z,4.05
2022-10-04T00:28:39.966Z,3.92
2022-10-04T00:31:25.610Z,3.60
2022-10-04T00:34:18.842Z,3.55
2022-10-04T00:36:53.971Z,3.92
2022-10-04T00:39:25.543Z,4.07
2022-10-04T00:42:15.202Z,4.15
2022-10-04T00:44:51.897Z,4.15
2022-10-04T00:47:21.728Z,3.90
2022-10-04T00:49:54.476Z,3.67
2022-10-04T00:52:27.624Z,4.43
2022-10-04T00:54:58.825Z,3.72
2022-10-04T00:57:31.675Z,4.05
2022-10-04T01:00:14.107Z,3.92
2022-10-04T01:05:23.209Z,3.92
2022-10-04T01:07:57.497Z,3.67
2022-10-04T01:10:49.457Z,3.28
2022-10-04T01:13:37.600Z,3.65
2022-10-04T01:16:26.678Z,3.67
2022-10-04T01:18:54.064Z,4.15
2022-10-04T01:21:21.072Z,3.78
2022-10-04T01:23:59.515Z,3.75
2022-10-04T01:26:35.190Z,3.60
2022-10-04T01:29:05.710Z,3.70
2022-10-04T01:31:35.800Z,4.07
2022-10-04T01:34:05.331Z,3.47
2022-10-04T01:36:34.161Z,3.95
2022-10-04T01:39:01.543Z,3.50
2022-10-04T01:41:32.616Z,3.65
2022-10-04T01:44:03.569Z,4.18
2022-10-04T01:46:36.737Z,3.40
2022-10-04T01:49:12.517Z,3.55
2022-10-04T01:51:50.050Z,4.38
2022-10-04T01:54:30.883Z,3.22
2022-10-04T01:57:11.832Z,3.53
2022-10-04T01:59:56.720Z,3.63
2022-10-04T02:02:53.059Z,3.92
2022-10-04T02:05:50.408Z,3.70
2022-10-04T02:08:22.214Z,3.05
2022-10-04T02:10:50.364Z,3.75
2022-10-04T02:13:19.318Z,3.70
2022-10-04T02:15:47.821Z,4.15
2022-10-04T02:18:21.109Z,3.80
2022-10-04T02:20:51.087Z,3.65
2022-10-04T02:23:20.612Z,3.72
2022-10-04T02:25:48.120Z,3.55
2022-10-04T02:28:16.303Z,3.10
2022-10-04T02:31:08.670Z,3.58
2022-10-04T02:33:41.731Z,3.28
2022-10-04T02:36:10.142Z,3.08
2022-10-04T02:38:48.055Z,3.97
2022-10-04T02:41:33.916Z,3.15
2022-10-04T02:44:29.950Z,3.65
2022-10-04T02:47:08.870Z,3.47
2022-10-04T02:49:47.943Z,3.10
2022-10-04T02:52:37.864Z,3.55
2022-10-04T02:55:16.792Z,3.70
2022-10-04T02:57:44.750Z,3.30
2022-10-04T03:00:17.483Z,3.15
2022-10-04T03:03:21.572Z,3.17
2022-10-04T03:06:03.670Z,3.30
2022-10-04T03:08:36.028Z,3.88
2022-10-04T03:11:04.696Z,2.97
2022-10-04T03:13:32.992Z,3.50
2022-10-04T03:16:00.777Z,3.50
2022-10-04T03:18:29.099Z,3.28
2022-10-04T03:20:56.511Z,3.15
2022-10-04T03:23:23.821Z,3.72
2022-10-04T03:26:01.493Z,3.50
2022-10-04T03:28:29.187Z,4.18
2022-10-04T03:30:58.157Z,3.53
2022-10-04T03:33:27.007Z,3.75
2022-10-04T03:35:56.931Z,4.03
2022-10-04T03:38:26.764Z,3.30
2022-10-04T03:41:01.262Z,3.92
2022-10-04T03:43:32.708Z,3.40
2022-10-04T03:46:01.263Z,3.53
2022-10-04T03:48:50.572Z,3.58
2022-10-04T03:51:21.280Z,3.42
2022-10-04T03:53:51.770Z,4.82
2022-10-04T03:56:34.819Z,3.53
2022-10-04T03:59:06.722Z,3.50
2022-10-04T04:01:36.728Z,4.45
2022-10-04T04:04:31.280Z,3.60
2022-10-04T04:07:04.244Z,3.75
2022-10-04T04:09:51.144Z,4.18
2022-10-04T04:12:25.995Z,5.15
2022-10-04T04:14:53.883Z,4.40
2022-10-04T04:17:27.475Z,5.25
2022-10-04T04:20:02.254Z,4.43
2022-10-04T04:22:32.636Z,4.95
2022-10-04T04:25:08.398Z,4.18
2022-10-04T04:27:40.765Z,4.03
2022-10-04T04:30:12.160Z,4.28
2022-10-04T04:32:43.151Z,4.95
2022-10-04T04:35:30.006Z,4.43
2022-10-04T04:38:06.816Z,4.35
2022-10-04T04:40:34.234Z,4.55
2022-10-04T04:43:03.142Z,4.82
2022-10-04T04:45:32.908Z,4.50
2022-10-04T04:48:01.460Z,4.50
2022-10-04T04:50:37.742Z,4.43
2022-10-04T04:53:10.206Z,4.70
2022-10-04T04:56:02.977Z,4.65
2022-10-04T04:58:36.057Z,4.65
2022-10-04T05:01:28.635Z,5.32
2022-10-04T05:06:31.630Z,4.72
2022-10-04T05:08:58.688Z,5.18
2022-10-04T05:11:31.197Z,4.88
2022-10-04T05:14:12.183Z,4.10
2022-10-04T05:16:43.896Z,4.63
2022-10-04T05:19:21.647Z,4.78
2022-10-04T05:21:51.601Z,4.63
2022-10-04T05:24:37.089Z,4.90
2022-10-04T05:27:22.638Z,5.40
2022-10-04T05:30:07.726Z,4.55
2022-10-04T05:32:40.356Z,5.18
2022-10-04T05:35:50.312Z,5.70
2022-10-04T05:38:30.868Z,5.00
2022-10-04T05:41:09.680Z,4.60
2022-10-04T05:43:48.554Z,5.35
2022-10-04T05:46:24.180Z,5.63
2022-10-04T05:49:00.988Z,4.43
2022-10-04T05:51:30.935Z,4.97
2022-10-04T05:54:01.694Z,5.65
2022-10-04T05:56:47.378Z,4.63
2022-10-04T05:59:32.371Z,5.18
2022-10-04T06:02:26.627Z,4.93
2022-10-04T06:05:11.707Z,5.40
2022-10-04T06:07:54.527Z,5.82
2022-10-04T06:10:40.509Z,6.55
2022-10-04T06:13:18.859Z,5.43
2022-10-04T06:15:45.787Z,5.63
2022-10-04T06:18:46.292Z,5.38
2022-10-04T06:21:28.523Z,5.60
2022-10-04T06:24:11.374Z,4.80
2022-10-04T06:26:49.298Z,4.70
2022-10-04T06:29:21.560Z,5.70
2022-10-04T06:32:14.598Z,5.25
2022-10-04T06:34:48.359Z,5.40
2022-10-04T06:37:38.709Z,5.85
2022-10-04T06:40:31.552Z,5.50
2022-10-04T06:43:14.710Z,4.68
2022-10-04T06:46:06.662Z,5.30
2022-10-04T06:48:45.893Z,5.53
2022-10-04T06:51:48.305Z,4.97
2022-10-04T06:54:45.905Z,5.00
2022-10-04T06:57:36.905Z,5.70
2022-10-04T07:00:23.104Z,5.32
2022-10-04T07:03:09.187Z,4.82
2022-10-04T07:05:58.277Z,5.28
2022-10-04T07:08:39.424Z,5.45
2022-10-04T07:11:27.473Z,4.22
2022-10-04T07:14:03.013Z,6.05
2022-10-04T07:16:54.662Z,5.00
2022-10-04T07:19:33.708Z,5.47
2022-10-04T07:22:21.651Z,5.95
2022-10-04T07:25:06.238Z,6.28
2022-10-04T07:27:37.108Z,5.15
2022-10-04T07:30:08.480Z,6.13
2022-10-04T07:32:38.928Z,6.07
2022-10-04T07:35:14.810Z,5.18
2022-10-04T07:37:58.724Z,5.07
2022-10-04T07:40:38.787Z,6.20
2022-10-04T07:43:11.048Z,5.97
2022-10-04T07:48:25.103Z,5.20
2022-10-04T07:51:19.327Z,5.68
2022-10-04T07:54:10.408Z,5.80
2022-10-04T07:56:41.507Z,6.65
2022-10-04T07:59:27.633Z,5.60
2022-10-04T08:02:17.862Z,5.00
2022-10-04T08:04:57.313Z,5.63
2022-10-04T08:07:37.996Z,5.35
2022-10-04T08:10:25.929Z,5.72
2022-10-04T08:12:58.736Z,5.03
2022-10-04T08:15:38.978Z,5.43
2022-10-04T08:18:24.990Z,5.03
2022-10-04T08:21:05.836Z,5.30
2022-10-04T08:24:03.474Z,6.15
2022-10-04T08:26:56.465Z,5.28
2022-10-04T08:30:05.410Z,5.90
2022-10-04T08:32:41.702Z,4.57
2022-10-04T08:35:24.257Z,6.13
2022-10-04T08:38:16.853Z,4.57
2022-10-04T08:43:50.730Z,4.32
2022-10-04T08:46:36.915Z,5.00
2022-10-04T08:49:29.301Z,4.65
2022-10-04T08:52:13.279Z,5.55
2022-10-04T08:55:03.866Z,4.30
2022-10-04T08:57:55.543Z,4.40
2022-10-04T09:00:31.961Z,4.87
2022-10-04T09:03:13.616Z,5.28
2022-10-04T09:06:06.408Z,4.40
2022-10-04T09:08:52.778Z,4.55
2022-10-04T09:11:38.379Z,4.40
2022-10-04T09:14:06.310Z,4.75
2022-10-04T09:16:47.216Z,4.85
2022-10-04T09:19:29.263Z,4.35
2022-10-04T09:21:56.186Z,4.68
2022-10-04T09:24:25.919Z,4.35
2022-10-04T09:27:01.736Z,4.53
2022-10-04T09:29:49.572Z,3.97
2022-10-04T09:32:30.617Z,4.22
2022-10-04T09:35:31.426Z,4.25
2022-10-04T09:38:29.552Z,4.13
2022-10-04T09:41:31.218Z,4.15
2022-10-04T09:44:25.253Z,4.05
2022-10-04T09:47:04.520Z,4.68
2022-10-04T09:49:42.500Z,4.05
2022-10-04T09:52:30.230Z,4.25
2022-10-04T09:55:18.762Z,4.45
2022-10-04T09:58:12.801Z,3.92
2022-10-04T10:01:17.190Z,3.97
2022-10-04T10:04:13.749Z,3.97
2022-10-04T10:06:49.520Z,3.65
2022-10-04T10:09:45.746Z,3.90
2022-10-04T10:12:33.973Z,3.70
2022-10-04T10:15:11.674Z,3.58
2022-10-04T10:18:01.204Z,4.05
2022-10-04T10:20:45.929Z,3.90
2022-10-04T10:23:54.125Z,3.20
2022-10-04T10:26:36.586Z,4.20
2022-10-04T10:29:37.722Z,4.18
2022-10-04T10:32:29.150Z,3.70
2022-10-04T10:35:17.506Z,3.53
2022-10-04T10:38:10.824Z,4.20
2022-10-04T10:41:01.530Z,3.67
2022-10-04T10:43:50.084Z,4.00
2022-10-04T10:46:19.345Z,3.20
2022-10-04T10:49:12.327Z,4.53
2022-10-04T10:52:25.485Z,3.38
2022-10-04T10:55:09.951Z,3.75
2022-10-04T11:00:43.494Z,4.10
2022-10-04T11:03:26.340Z,4.45
2022-10-04T11:09:22.399Z,3.90
2022-10-04T11:21:14.635Z,4.40
2022-10-04T11:24:09.188Z,4.72
2022-10-04T11:26:57.621Z,4.75
2022-10-04T11:29:43.162Z,4.75
2022-10-04T11:32:30.630Z,3.95
2022-10-04T11:35:00.556Z,5.22
2022-10-04T11:38:11.389Z,4.82
2022-10-04T11:41:13.999Z,3.90
2022-10-04T11:43:52.638Z,4.28
2022-10-04T11:46:57.655Z,4.05
2022-10-04T12:27:24.933Z,4.05
2022-10-04T12:30:00.627Z,4.10
2022-10-04T12:32:34.284Z,3.92
2022-10-04T12:35:07.659Z,4.18
2022-10-04T12:37:42.978Z,3.92
2022-10-04T12:40:10.014Z,4.03
2022-10-04T12:42:57.451Z,4.35
2022-10-04T12:45:42.359Z,3.85
2022-10-04T12:48:26.191Z,3.80
2022-10-04T12:51:28.097Z,4.47
2022-10-04T12:54:42.689Z,3.37
2022-10-04T12:57:34.668Z,3.47
2022-10-04T13:00:15.054Z,3.80
2022-10-04T13:03:19.094Z,4.05
2022-10-04T13:06:07.455Z,3.65
2022-10-04T13:08:40.176Z,3.80
2022-10-04T13:11:13.018Z,3.30
2022-10-04T13:14:30.864Z,2.63
2022-10-04T13:17:29.924Z,2.30
2022-10-04T13:20:20.801Z,2.33
2022-10-04T13:23:06.505Z,2.53
2022-10-04T13:25:42.300Z,3.42
2022-10-04T13:28:20.764Z,2.60
2022-10-04T13:31:04.297Z,2.47
2022-10-04T13:34:03.918Z,3.00
2022-10-04T13:36:49.547Z,2.60
2022-10-04T13:39:28.808Z,2.50
2022-10-04T13:42:20.625Z,2.65
2022-10-04T13:45:08.581Z,2.90
2022-10-04T13:47:45.729Z,2.97
2022-10-04T13:50:17.738Z,3.00
2022-10-04T13:53:42.690Z,3.20
2022-10-04T13:56:28.574Z,2.60
2022-10-04T13:59:25.134Z,2.45
2022-10-04T14:02:12.686Z,3.00
2022-10-04T14:04:58.113Z,3.47
2022-10-04T14:07:55.455Z,3.10
2022-10-04T14:10:43.851Z,3.38
2022-10-04T14:13:55.603Z,3.03
2022-10-04T14:16:51.702Z,3.28
2022-10-04T14:19:42.520Z,2.90
2022-10-04T14:22:45.371Z,3.65
2022-10-04T14:25:31.061Z,3.20
2022-10-04T14:28:42.613Z,2.80
2022-10-04T14:31:23.925Z,3.70
2022-10-04T14:34:29.787Z,3.28
2022-10-04T14:37:08.932Z,2.80
2022-10-04T14:40:11.882Z,2.65
2022-10-04T14:43:14.874Z,2.72
2022-10-04T14:46:17.083Z,2.83
2022-10-04T14:48:44.488Z,2.85
2022-10-04T14:51:11.535Z,3.00
2022-10-04T14:54:07.982Z,2.70
2022-10-04T14:56:53.404Z,3.60
2022-10-04T15:00:01.640Z,3.60
2022-10-04T15:02:31.747Z,2.75
2022-10-04T15:05:31.215Z,2.92
2022-10-04T15:08:32.491Z,2.78
2022-10-04T15:11:19.987Z,3.28
2022-10-04T15:13:56.404Z,2.63
2022-10-04T15:16:36.984Z,2.20
2022-10-04T15:19:27.449Z,2.70
2022-10-04T15:22:05.987Z,2.72
2022-10-04T15:24:52.383Z,2.72
2022-10-04T15:27:34.333Z,2.35
2022-10-04T15:30:19.672Z,2.63
2022-10-04T15:33:11.864Z,2.97
2022-10-04T15:35:57.084Z,2.40
2022-10-04T15:38:36.286Z,2.70
2022-10-04T15:41:27.774Z,2.70
2022-10-04T15:44:14.399Z,2.77
2022-10-04T15:46:49.663Z,3.17
2022-10-04T15:49:57.415Z,2.88
2022-10-04T15:52:43.273Z,3.15
2022-10-04T15:55:25.054Z,3.22
2022-10-04T15:58:34.082Z,2.83
2022-10-04T16:01:36.645Z,3.00
2022-10-04T16:06:54.020Z,2.67
2022-10-04T16:09:23.750Z,3.03
2022-10-04T16:11:56.353Z,3.42
2022-10-04T16:17:20.085Z,3.08
2022-10-04T16:20:28.313Z,3.10
2022-10-04T16:23:25.889Z,2.83
2022-10-04T16:26:16.090Z,3.38
2022-10-04T16:29:01.448Z,2.90
2022-10-04T16:31:45.151Z,3.05
2022-10-04T16:34:33.919Z,3.42
2022-10-04T16:37:14.299Z,3.40
2022-10-04T16:40:02.451Z,2.90
2022-10-04T16:42:56.388Z,3.65
2022-10-04T16:45:51.386Z,3.03
2022-10-04T16:48:37.629Z,3.72
2022-10-04T16:51:18.065Z,3.97
2022-10-04T16:53:53.541Z,3.60
2022-10-04T16:56:25.583Z,3.78
2022-10-04T16:58:57.590Z,3.22
2022-10-04T17:01:25.375Z,4.07
2022-10-04T17:04:04.515Z,4.10
2022-10-04T17:06:51.635Z,3.33
2022-10-04T17:09:35.486Z,3.55
2022-10-04T17:12:35.509Z,3.20
2022-10-04T17:15:31.348Z,3.72
2022-10-04T17:18:17.478Z,3.60
2022-10-04T17:20:51.094Z,4.00
2022-10-04T17:23:54.944Z,4.25
2022-10-04T17:26:45.474Z,4.00
2022-10-04T17:29:43.516Z,3.75
2022-10-04T17:32:30.555Z,3.67
2022-10-04T17:35:13.469Z,4.20
2022-10-04T17:37:58.558Z,4.43
2022-10-04T17:40:52.889Z,5.63
2022-10-04T17:44:05.044Z,5.60
2022-10-04T17:46:43.159Z,4.90
2022-10-04T17:49:55.053Z,3.95
2022-10-04T17:52:29.967Z,3.97
2022-10-04T17:55:15.857Z,3.92
2022-10-04T17:58:04.556Z,4.15
2022-10-04T18:00:58.978Z,4.20
2022-10-04T18:03:37.362Z,4.28
2022-10-04T18:07:03.285Z,4.80
2022-10-04T18:09:52.153Z,4.18
2022-10-04T18:12:40.101Z,4.88
2022-10-04T18:15:50.899Z,3.75
2022-10-04T18:18:21.254Z,5.00
2022-10-04T18:20:54.562Z,5.45
2022-10-04T18:23:29.457Z,4.50
2022-10-04T18:26:17.716Z,4.47
2022-10-04T18:28:47.605Z,4.60
2022-10-04T18:31:24.290Z,5.30
2022-10-04T18:33:54.136Z,4.80
2022-10-04T18:36:32.063Z,4.82
2022-10-04T18:39:11.506Z,4.32
2022-10-04T18:41:55.136Z,4.78
2022-10-04T18:44:29.379Z,4.18
2022-10-04T18:47:01.062Z,4.70
2022-10-04T18:49:31.139Z,4.03
2022-10-04T18:52:07.176Z,4.15
2022-10-04T18:54:48.799Z,3.97
2022-10-04T18:57:26.732Z,4.87
2022-10-04T19:00:33.361Z,4.10
2022-10-04T19:03:24.790Z,3.60
2022-10-04T19:06:01.508Z,4.35
2022-10-04T19:08:44.695Z,4.55
2022-10-04T19:11:27.108Z,4.28
2022-10-04T19:16:59.241Z,5.00
2022-10-04T19:19:44.965Z,4.80
2022-10-04T19:22:44.482Z,4.32
2022-10-04T19:25:35.583Z,4.90
2022-10-04T19:28:24.034Z,4.70
2022-10-04T19:31:15.166Z,4.47
2022-10-04T19:33:50.258Z,5.10
2022-10-04T19:36:46.723Z,4.47
2022-10-04T19:39:31.703Z,4.07
2022-10-04T19:42:31.659Z,4.68
2022-10-04T19:45:06.164Z,4.82
2022-10-04T19:47:38.981Z,5.00
2022-10-04T19:50:24.035Z,5.00
2022-10-04T19:53:19.750Z,4.82
2022-10-04T19:55:58.689Z,5.15
2022-10-04T19:58:40.435Z,11.43
2022-10-04T20:01:17.329Z,13.10
2022-10-04T20:03:45.925Z,8.55
2022-10-04T20:06:26.080Z,6.95
2022-10-04T20:09:02.721Z,6.30
2022-10-04T20:11:42.812Z,6.60
2022-10-04T20:14:15.500Z,6.55
2022-10-04T20:16:54.274Z,7.00
2022-10-04T20:19:30.342Z,5.95
2022-10-04T20:22:30.491Z,6.50
2022-10-04T20:24:59.307Z,6.85
2022-10-04T20:27:30.441Z,7.10
2022-10-04T20:30:04.449Z,6.72
2022-10-04T20:32:34.485Z,7.13
2022-10-04T20:35:05.914Z,6.32
2022-10-04T20:37:45.009Z,6.67
2022-10-04T20:40:35.055Z,6.32
2022-10-04T20:43:14.592Z,6.75
2022-10-04T20:45:55.172Z,5.88
2022-10-04T20:48:24.851Z,6.78
2022-10-04T20:50:52.861Z,5.82
2022-10-04T20:53:21.792Z,6.30
2022-10-04T20:55:49.954Z,6.47
2022-10-04T20:58:35.184Z,6.90
2022-10-04T21:01:14.435Z,6.13
2022-10-04T21:03:41.647Z,6.40
2022-10-04T21:06:10.928Z,6.13
2022-10-04T21:08:39.594Z,6.75
2022-10-04T21:11:20.766Z,6.75
2022-10-04T21:13:49.239Z,5.97
2022-10-04T21:16:38.135Z,7.13
2022-10-04T21:19:33.077Z,6.63
2022-10-04T21:22:01.830Z,6.85
2022-10-04T21:24:38.080Z,6.35
2022-10-04T21:27:24.786Z,6.18
2022-10-04T21:29:53.769Z,6.85
2022-10-04T21:32:21.940Z,6.78
2022-10-04T21:34:53.547Z,7.25
2022-10-04T21:37:21.502Z,6.70
2022-10-04T21:39:49.089Z,7.07
2022-10-04T21:42:16.351Z,7.03
2022-10-04T21:44:43.677Z,6.80
2022-10-04T21:47:10.976Z,7.28
2022-10-04T21:49:38.041Z,7.05
2022-10-04T21:52:05.766Z,7.10
2022-10-04T21:54:33.253Z,6.78
2022-10-04T21:57:00.598Z,7.18
2022-10-04T21:59:27.914Z,7.68
2022-10-04T22:01:54.864Z,7.13
2022-10-04T22:04:22.152Z,7.30
2022-10-04T22:06:49.762Z,7.00
2022-10-04T22:09:17.090Z,7.63
2022-10-04T22:11:44.223Z,6.97
2022-10-04T22:14:11.263Z,8.02
2022-10-04T22:16:38.304Z,7.20
2022-10-04T22:19:05.355Z,7.18
2022-10-04T22:21:32.504Z,6.82
2022-10-04T22:24:03.272Z,7.50
2022-10-04T22:26:31.666Z,7.43
2022-10-04T22:28:58.738Z,7.70
2022-10-04T22:31:28.400Z,7.47
2022-10-04T22:33:56.644Z,6.93
2022-10-04T22:36:29.362Z,6.78
2022-10-04T22:39:00.469Z,8.00
2022-10-04T22:41:33.592Z,7.50
2022-10-04T22:44:10.652Z,7.75
2022-10-04T22:46:41.019Z,7.78
2022-10-04T22:49:13.161Z,7.75
2022-10-04T22:51:42.010Z,7.35
2022-10-04T22:54:20.293Z,8.07
2022-10-04T22:56:48.756Z,7.45
2022-10-04T22:59:19.538Z,7.30
2022-10-04T23:01:47.306Z,7.38
2022-10-04T23:04:25.119Z,7.80
2022-10-04T23:06:53.215Z,8.10
2022-10-04T23:09:21.084Z,7.85
2022-10-04T23:11:48.245Z,8.88
2022-10-04T23:14:15.154Z,7.53
2022-10-04T23:16:43.780Z,7.38
2022-10-04T23:19:18.807Z,7.85
2022-10-04T23:21:47.852Z,7.43
2022-10-04T23:24:20.891Z,7.22
2022-10-04T23:26:56.609Z,8.27
2022-10-04T23:29:27.543Z,6.80
2022-10-04T23:31:55.695Z,8.18
2022-10-04T23:34:36.243Z,7.63
2022-10-04T23:37:04.880Z,7.72
2022-10-04T23:39:34.932Z,8.43
2022-10-04T23:42:05.372Z,7.47
2022-10-04T23:44:38.101Z,7.50
2022-10-04T23:47:17.591Z,8.18
2022-10-04T23:49:46.501Z,8.05
2022-10-04T23:52:21.557Z,7.70
2022-10-04T23:54:50.831Z,7.55
2022-10-04T23:57:29.908Z,8.13
2022-10-04T23:59:59.574Z,7.60
